Time;durP1;ratioP1;P1;durP2;ratioP2;P2;SDS_P1;SDS_P2;PMS_P1;PMS_P2;Temp;Humidity;BMP_temperature;BMP_pressure;BME280_temperature;BME280_humidity;BME280_pressure;Samples;Min_cycle;Max_cycle;Signal;HPM_P1;HPM_P2
2022/07/30 00:01:29;;;;;;;3.73;3.37;;;20.80;1.00;;;;;;6280020;28;20755;-55
2022/07/30 00:04:32;;;;;;;6.97;3.80;;;20.80;1.00;;;;;;6270569;28;20339;-54
2022/07/30 00:07:35;;;;;;;3.50;3.20;;;20.70;1.00;;;;;;6277385;28;20845;-55
2022/07/30 00:10:40;;;;;;;5.80;3.67;;;20.70;1.00;;;;;;6281589;28;20286;-54
2022/07/30 00:13:43;;;;;;;3.70;3.40;;;20.70;1.00;;;;;;6271951;28;20746;-54
2022/07/30 00:16:46;;;;;;;8.97;4.00;;;20.60;1.00;;;;;;6268983;28;20226;-54
2022/07/30 00:19:49;;;;;;;4.40;4.00;;;20.60;1.00;;;;;;6269618;28;20237;-55
2022/07/30 00:22:52;;;;;;;5.77;3.70;;;20.60;1.00;;;;;;6276065;28;20308;-55
2022/07/30 00:25:56;;;;;;;6.10;3.17;;;20.60;1.00;;;;;;6282595;28;20318;-55
2022/07/30 00:28:59;;;;;;;3.33;3.20;;;20.50;1.00;;;;;;6271024;28;20436;-55
2022/07/30 00:32:02;;;;;;;3.40;3.10;;;20.50;1.00;;;;;;6273508;28;20573;-55
2022/07/30 00:35:06;;;;;;;6.67;3.37;;;20.40;1.00;;;;;;6273988;28;20222;-55
2022/07/30 00:38:09;;;;;;;3.53;3.10;;;20.40;1.00;;;;;;6270738;28;20757;-55
2022/07/30 00:41:13;;;;;;;5.87;2.87;;;20.30;1.00;;;;;;6274203;28;20654;-54
2022/07/30 00:44:17;;;;;;;3.60;3.10;;;20.30;1.00;;;;;;6261663;28;20233;-55
2022/07/30 00:47:20;;;;;;;3.67;3.07;;;20.30;1.00;;;;;;6276943;28;20240;-54
2022/07/30 00:50:23;;;;;;;5.33;3.37;;;20.30;1.00;;;;;;6279035;28;20328;-55
2022/07/30 00:53:26;;;;;;;5.10;3.53;;;20.20;1.00;;;;;;6272780;28;20764;-53
2022/07/30 00:56:31;;;;;;;7.97;4.13;;;20.20;1.00;;;;;;6271276;28;20301;-55
2022/07/30 00:59:34;;;;;;;5.33;3.47;;;20.10;1.00;;;;;;6275580;28;20312;-55
2022/07/30 01:02:37;;;;;;;4.60;3.40;;;20.10;1.00;;;;;;6269868;28;20358;-55
2022/07/30 01:05:40;;;;;;;3.30;3.20;;;20.10;1.00;;;;;;6242008;28;20594;-56
2022/07/30 01:08:43;;;;;;;5.70;3.30;;;20.00;1.00;;;;;;6272144;28;20303;-54
2022/07/30 01:11:47;;;;;;;3.63;3.30;;;20.00;1.00;;;;;;6269024;28;20317;-57
2022/07/30 01:14:50;;;;;;;3.53;3.30;;;20.00;1.00;;;;;;6273519;28;20233;-54
2022/07/30 01:17:56;;;;;;;5.00;3.37;;;20.00;1.00;;;;;;6275134;28;20361;-54
2022/07/30 01:21:05;;;;;;;6.17;3.27;;;20.00;1.00;;;;;;6262758;28;20238;-57
2022/07/30 01:24:19;;;;;;;5.57;3.37;;;19.90;1.00;;;;;;6264315;28;20230;-54
2022/07/30 01:27:24;;;;;;;4.07;3.53;;;19.90;1.00;;;;;;6283953;28;20241;-55
2022/07/30 01:30:30;;;;;;;4.73;3.47;;;19.90;1.00;;;;;;6257514;28;20335;-54
2022/07/30 01:33:40;;;;;;;3.47;3.17;;;19.90;1.00;;;;;;6276495;28;20378;-54
2022/07/30 01:36:46;;;;;;;3.53;3.33;;;19.90;1.00;;;;;;6271417;28;20783;-55
2022/07/30 01:39:50;;;;;;;6.83;3.47;;;19.80;1.00;;;;;;6266102;28;20243;-55
2022/07/30 01:42:57;;;;;;;5.83;3.70;;;19.80;1.00;;;;;;6263866;28;20606;-55
2022/07/30 01:46:02;;;;;;;4.63;3.63;;;19.70;1.00;;;;;;6269601;28;20675;-53
2022/07/30 01:49:07;;;;;;;10.30;3.37;;;19.70;1.00;;;;;;6272860;28;20238;-55
2022/07/30 01:52:12;;;;;;;3.80;3.40;;;19.70;1.00;;;;;;6274422;28;20230;-54
2022/07/30 01:55:17;;;;;;;4.57;3.40;;;19.70;1.00;;;;;;6265551;28;20233;-54
2022/07/30 01:58:24;;;;;;;3.40;3.10;;;19.70;1.00;;;;;;6283701;28;20726;-55
2022/07/30 02:01:27;;;;;;;3.93;3.57;;;19.60;1.00;;;;;;6282764;28;20237;-55
2022/07/30 02:04:30;;;;;;;4.70;3.47;;;19.60;1.00;;;;;;6285050;28;20279;-54
2022/07/30 02:07:39;;;;;;;3.60;3.40;;;19.50;1.00;;;;;;6282511;28;20650;-57
2022/07/30 02:10:45;;;;;;;3.97;3.53;;;19.50;1.00;;;;;;6278214;28;20287;-55
2022/07/30 02:13:54;;;;;;;4.87;3.23;;;19.50;1.00;;;;;;6271598;28;20360;-53
2022/07/30 02:17:00;;;;;;;4.93;3.50;;;19.50;1.00;;;;;;6268649;28;20539;-54
2022/07/30 02:20:05;;;;;;;3.60;3.33;;;19.50;1.00;;;;;;6264574;28;20242;-55
2022/07/30 02:23:15;;;;;;;4.13;3.30;;;19.50;1.00;;;;;;6257743;28;20237;-55
2022/07/30 02:26:22;;;;;;;3.43;3.23;;;19.40;1.00;;;;;;6254160;28;20311;-54
2022/07/30 02:29:32;;;;;;;3.67;3.47;;;19.40;1.00;;;;;;6251561;28;20706;-54
2022/07/30 02:32:38;;;;;;;4.10;3.40;;;19.40;1.00;;;;;;6283347;28;20331;-54
2022/07/30 02:35:42;;;;;;;5.10;3.33;;;19.40;1.00;;;;;;6284962;28;20314;-53
2022/07/30 02:38:46;;;;;;;6.00;3.43;;;19.30;1.00;;;;;;6272173;28;20312;-54
2022/07/30 02:41:52;;;;;;;3.43;3.13;;;19.30;1.00;;;;;;6285076;28;20726;-54
2022/07/30 02:44:58;;;;;;;3.67;3.00;;;19.30;1.00;;;;;;6273855;28;20233;-55
2022/07/30 02:48:05;;;;;;;7.17;3.50;;;19.20;1.00;;;;;;6267874;28;20259;-54
2022/07/30 02:51:09;;;;;;;4.00;3.70;;;19.20;1.00;;;;;;6269494;28;20497;-55
2022/07/30 02:54:14;;;;;;;4.00;3.20;;;19.20;1.00;;;;;;6274000;28;20359;-56
2022/07/30 02:57:19;;;;;;;7.13;3.20;;;19.20;1.00;;;;;;6280494;28;20328;-54
2022/07/30 03:00:25;;;;;;;3.50;3.30;;;19.20;1.00;;;;;;6280211;28;20721;-55
2022/07/30 03:03:29;;;;;;;3.20;3.10;;;19.10;1.00;;;;;;6298279;28;20871;-54
2022/07/30 03:06:33;;;;;;;4.57;3.43;;;19.10;1.00;;;;;;6273698;28;20653;-55
2022/07/30 03:09:38;;;;;;;5.53;2.90;;;19.10;1.00;;;;;;6272306;28;20239;-55
2022/07/30 03:12:55;;;;;;;5.67;3.50;;;19.10;1.00;;;;;;6272856;28;20241;-55
2022/07/30 03:16:04;;;;;;;3.07;2.87;;;19.00;1.00;;;;;;6265983;28;20227;-55
2022/07/30 03:19:09;;;;;;;3.63;3.33;;;19.00;1.00;;;;;;6270903;28;20246;-53
2022/07/30 03:22:14;;;;;;;2.87;2.80;;;19.00;1.00;;;;;;6279010;28;20320;-54
2022/07/30 03:25:22;;;;;;;7.27;3.17;;;19.00;1.00;;;;;;6269971;28;20513;-55
2022/07/30 03:28:26;;;;;;;8.00;3.07;;;19.00;1.00;;;;;;6281929;28;20509;-55
2022/07/30 03:31:31;;;;;;;4.07;3.07;;;19.00;1.00;;;;;;6272816;28;20249;-53
2022/07/30 03:34:39;;;;;;;3.27;3.07;;;19.00;1.00;;;;;;6272306;28;20277;-55
2022/07/30 03:37:43;;;;;;;3.30;3.17;;;19.00;1.00;;;;;;6287001;28;20237;-55
2022/07/30 03:40:47;;;;;;;3.47;2.93;;;19.00;1.00;;;;;;6280298;28;20387;-55
2022/07/30 03:43:51;;;;;;;3.87;3.00;;;18.90;1.00;;;;;;6262977;28;20325;-54
2022/07/30 03:46:57;;;;;;;4.47;3.17;;;19.00;1.00;;;;;;6262753;28;20294;-55
2022/07/30 03:50:02;;;;;;;3.30;3.00;;;18.90;1.00;;;;;;6257512;28;20683;-55
2022/07/30 03:53:05;;;;;;;3.77;3.40;;;18.90;1.00;;;;;;6279192;28;20229;-55
2022/07/30 03:56:10;;;;;;;5.10;2.97;;;18.90;1.00;;;;;;6265128;28;20572;-55
2022/07/30 03:59:14;;;;;;;4.10;2.80;;;19.00;1.00;;;;;;6278749;28;20244;-53
2022/07/30 04:02:19;;;;;;;3.13;2.90;;;18.90;1.00;;;;;;6284126;28;20240;-55
2022/07/30 04:05:22;;;;;;;2.80;2.70;;;19.00;1.00;;;;;;6273390;28;20473;-62
2022/07/30 04:08:25;;;;;;;3.13;2.90;;;19.00;1.00;;;;;;6283447;28;20931;-54
2022/07/30 04:11:28;;;;;;;5.20;3.13;;;19.00;1.00;;;;;;6278267;28;20458;-55
2022/07/30 04:14:44;;;;;;;3.40;3.07;;;18.90;1.00;;;;;;6279092;28;20320;-53
2022/07/30 04:17:53;;;;;;;5.77;2.90;;;19.00;1.00;;;;;;6277550;28;20314;-55
2022/07/30 04:20:58;;;;;;;4.53;2.97;;;19.00;1.00;;;;;;6272661;28;20225;-54
2022/07/30 04:24:01;;;;;;;5.23;3.37;;;19.00;1.00;;;;;;6281367;28;20324;-55
2022/07/30 04:27:07;;;;;;;4.47;2.83;;;19.10;1.00;;;;;;6274433;28;20229;-53
2022/07/30 04:30:11;;;;;;;3.30;3.00;;;19.10;1.00;;;;;;6272387;28;20372;-55
2022/07/30 04:33:16;;;;;;;9.17;3.00;;;19.00;1.00;;;;;;6275672;28;20222;-55
2022/07/30 04:36:19;;;;;;;2.97;2.77;;;19.10;1.00;;;;;;6279706;28;20338;-53
2022/07/30 04:39:22;;;;;;;2.77;2.60;;;19.10;1.00;;;;;;6278231;28;20425;-54
2022/07/30 04:42:26;;;;;;;7.30;2.90;;;19.10;1.00;;;;;;6277487;28;20225;-53
2022/07/30 04:45:29;;;;;;;3.23;2.80;;;19.20;1.00;;;;;;6276964;28;20310;-59
2022/07/30 04:48:33;;;;;;;3.00;2.80;;;19.20;1.00;;;;;;6277375;28;20879;-54
2022/07/30 04:51:38;;;;;;;3.00;2.90;;;19.30;1.00;;;;;;6279318;28;20778;-55
2022/07/30 04:54:43;;;;;;;3.23;2.50;;;19.30;1.00;;;;;;6274723;28;20238;-55
2022/07/30 04:57:48;;;;;;;2.50;2.30;;;19.30;1.00;;;;;;6273313;28;20316;-52
2022/07/30 05:00:52;;;;;;;3.67;2.77;;;19.30;1.00;;;;;;6268321;28;20229;-54
2022/07/30 05:03:59;;;;;;;5.30;2.80;;;19.40;1.00;;;;;;6274137;28;20812;-53
2022/07/30 05:07:03;;;;;;;3.20;2.50;;;19.50;1.00;;;;;;6272608;28;20278;-55
2022/07/30 05:10:08;;;;;;;4.43;2.80;;;19.50;1.00;;;;;;6278432;28;20237;-54
2022/07/30 05:13:12;;;;;;;4.00;2.83;;;19.50;1.00;;;;;;6261176;28;20316;-54
2022/07/30 05:16:16;;;;;;;3.10;2.80;;;19.60;1.00;;;;;;6258021;28;20636;-53
2022/07/30 05:19:22;;;;;;;2.57;2.47;;;19.60;1.00;;;;;;6277151;28;20297;-54
2022/07/30 05:22:28;;;;;;;4.07;2.57;;;19.70;1.00;;;;;;6277190;28;20230;-55
2022/07/30 05:25:31;;;;;;;2.40;2.30;;;19.70;1.00;;;;;;6276062;28;20237;-54
2022/07/30 05:28:35;;;;;;;4.70;3.10;;;19.80;1.00;;;;;;6281435;28;20817;-53
2022/07/30 05:31:39;;;;;;;2.97;2.70;;;19.90;1.00;;;;;;6272714;28;20360;-54
2022/07/30 05:34:43;;;;;;;3.70;2.60;;;20.00;1.00;;;;;;6288764;28;20319;-54
2022/07/30 05:37:51;;;;;;;3.07;2.43;;;20.00;1.00;;;;;;6291115;28;20243;-55
2022/07/30 05:40:54;;;;;;;3.03;2.80;;;20.10;1.00;;;;;;6281952;28;20374;-54
2022/07/30 05:43:57;;;;;;;3.00;2.80;;;20.20;1.00;;;;;;6275731;28;20811;-54
2022/07/30 05:47:00;;;;;;;2.83;2.63;;;20.30;1.00;;;;;;6280277;28;20979;-55
2022/07/30 05:50:06;;;;;;;2.13;2.13;;;20.30;1.00;;;;;;6269588;28;20317;-54
2022/07/30 05:53:09;;;;;;;2.63;2.40;;;20.40;1.00;;;;;;6277668;28;20229;-54
2022/07/30 05:56:12;;;;;;;5.60;2.30;;;20.50;1.00;;;;;;6280669;28;20249;-54
2022/07/30 05:59:15;;;;;;;2.47;2.37;;;20.50;1.00;;;;;;6282357;28;20441;-54
2022/07/30 06:02:19;;;;;;;2.83;2.70;;;20.50;1.00;;;;;;6277246;28;20299;-55
2022/07/30 06:05:28;;;;;;;2.47;2.27;;;20.60;1.00;;;;;;6284443;28;20783;-53
2022/07/30 06:08:31;;;;;;;4.40;2.90;;;20.70;1.00;;;;;;6276743;28;20249;-53
2022/07/30 06:11:34;;;;;;;3.67;2.67;;;20.70;1.00;;;;;;6261819;28;20256;-53
2022/07/30 06:14:37;;;;;;;2.67;2.57;;;20.70;1.00;;;;;;6278885;28;20458;-54
2022/07/30 06:17:44;;;;;;;2.67;2.47;;;20.80;1.00;;;;;;6277016;28;20291;-53
2022/07/30 06:21:00;;;;;;;3.90;2.47;;;20.80;1.00;;;;;;6279816;28;20717;-54
2022/07/30 06:24:03;;;;;;;3.07;2.40;;;20.90;1.00;;;;;;6278742;28;20242;-54
2022/07/30 06:27:06;;;;;;;3.17;2.73;;;20.90;1.00;;;;;;6271166;28;20327;-54
2022/07/30 06:30:10;;;;;;;3.50;2.77;;;21.00;1.00;;;;;;6286940;28;20328;-56
2022/07/30 06:33:14;;;;;;;3.90;2.80;;;21.00;1.00;;;;;;6280062;28;20233;-53
2022/07/30 06:36:19;;;;;;;3.40;2.47;;;21.10;1.00;;;;;;6275198;28;20644;-54
2022/07/30 06:39:22;;;;;;;4.10;2.60;;;21.20;1.00;;;;;;6281715;28;20812;-54
2022/07/30 06:42:49;;;;;;;3.63;2.30;;;21.30;1.00;;;;;;6278081;28;20229;-55
2022/07/30 06:45:52;;;;;;;2.70;2.50;;;21.50;1.00;;;;;;6263601;28;20320;-54
2022/07/30 06:48:55;;;;;;;2.77;2.50;;;21.60;1.00;;;;;;6266413;28;21158;-55
2022/07/30 06:52:00;;;;;;;2.83;2.63;;;21.70;1.00;;;;;;6278776;28;20241;-56
2022/07/30 06:55:04;;;;;;;4.13;2.63;;;21.80;1.00;;;;;;6269496;28;20328;-55
2022/07/30 06:58:07;;;;;;;3.17;2.50;;;21.90;1.00;;;;;;6295194;28;20482;-56
2022/07/30 07:01:10;;;;;;;4.23;2.53;;;22.00;1.00;;;;;;6273010;28;20325;-55
2022/07/30 07:04:13;;;;;;;2.33;2.23;;;22.10;1.00;;;;;;6274193;28;20725;-55
2022/07/30 07:07:18;;;;;;;2.80;2.60;;;22.20;1.00;;;;;;6284352;28;20484;-54
2022/07/30 07:10:41;;;;;;;2.47;2.37;;;22.30;1.00;;;;;;6284057;28;20605;-55
2022/07/30 07:13:44;;;;;;;2.83;2.50;;;22.40;1.00;;;;;;6274507;28;20710;-53
2022/07/30 07:16:48;;;;;;;2.63;2.33;;;22.50;1.00;;;;;;6270462;28;20222;-54
2022/07/30 07:19:51;;;;;;;2.70;2.37;;;22.50;1.00;;;;;;6275789;28;20233;-55
2022/07/30 07:23:04;;;;;;;5.70;2.70;;;22.50;1.00;;;;;;6263347;28;20672;-54
2022/07/30 07:26:14;;;;;;;2.80;2.70;;;22.50;1.00;;;;;;6281481;28;20287;-54
2022/07/30 07:29:17;;;;;;;2.87;2.67;;;22.50;1.00;;;;;;6281287;28;20297;-54
2022/07/30 07:32:20;;;;;;;2.53;2.33;;;22.50;1.00;;;;;;6283507;28;20676;-54
2022/07/30 07:35:23;;;;;;;2.70;2.50;;;22.50;1.00;;;;;;6281428;28;20778;-54
2022/07/30 07:38:27;;;;;;;3.13;2.90;;;22.50;1.00;;;;;;6281674;28;20331;-54
2022/07/30 07:41:30;;;;;;;2.67;2.53;;;22.50;1.00;;;;;;6284585;28;20385;-54
2022/07/30 07:44:51;;;;;;;2.50;2.33;;;22.60;1.00;;;;;;6272904;28;20229;-53
2022/07/30 07:47:54;;;;;;;6.97;2.50;;;22.60;1.00;;;;;;6276131;28;20608;-54
2022/07/30 07:50:57;;;;;;;4.10;2.40;;;22.70;1.00;;;;;;6285731;28;20537;-54
2022/07/30 07:54:04;;;;;;;3.00;2.53;;;22.80;1.00;;;;;;6281466;28;20237;-55
2022/07/30 07:57:23;;;;;;;2.50;2.40;;;22.90;1.00;;;;;;6285793;28;20313;-53
2022/07/30 08:00:26;;;;;;;2.37;2.13;;;23.00;1.00;;;;;;6271154;28;20239;-55
2022/07/30 08:03:29;;;;;;;2.83;2.50;;;23.00;1.00;;;;;;6283669;28;20339;-54
2022/07/30 08:06:32;;;;;;;2.57;2.37;;;23.10;1.00;;;;;;6279498;28;20292;-54
2022/07/30 08:09:36;;;;;;;4.10;2.97;;;23.20;1.00;;;;;;6283584;28;20261;-55
2022/07/30 08:12:46;;;;;;;4.00;2.60;;;23.30;1.00;;;;;;6289916;28;20793;-54
2022/07/30 08:15:49;;;;;;;2.37;2.27;;;23.40;1.00;;;;;;6291392;28;20235;-54
2022/07/30 08:18:52;;;;;;;2.93;2.33;;;23.40;1.00;;;;;;6288298;28;20244;-54
2022/07/30 08:21:55;;;;;;;5.37;2.50;;;23.50;1.00;;;;;;6289011;28;20251;-54
2022/07/30 08:24:59;;;;;;;5.70;2.70;;;23.60;1.00;;;;;;6294603;28;20256;-53
2022/07/30 08:28:05;;;;;;;4.33;2.87;;;23.70;1.00;;;;;;6275796;28;20241;-55
2022/07/30 08:31:09;;;;;;;3.40;2.40;;;23.90;1.00;;;;;;6285984;28;20233;-55
2022/07/30 08:34:12;;;;;;;3.43;2.30;;;24.00;1.00;;;;;;6288407;28;20306;-54
2022/07/30 08:37:15;;;;;;;2.37;2.17;;;24.00;1.00;;;;;;6293776;28;20320;-54
2022/07/30 08:40:20;;;;;;;6.10;2.93;;;24.00;1.00;;;;;;6282423;28;20320;-55
2022/07/30 08:43:25;;;;;;;2.70;2.53;;;24.10;1.00;;;;;;6287359;28;20324;-54
2022/07/30 08:46:31;;;;;;;4.43;2.87;;;24.20;1.00;;;;;;6286879;28;20310;-54
2022/07/30 08:49:35;;;;;;;4.20;2.70;;;24.30;1.00;;;;;;6290037;28;20322;-53
2022/07/30 08:52:38;;;;;;;3.50;2.90;;;24.40;1.00;;;;;;6281918;28;20230;-55
2022/07/30 08:55:43;;;;;;;2.70;2.60;;;24.50;1.00;;;;;;6284406;28;20962;-55
2022/07/30 08:58:47;;;;;;;3.30;2.70;;;24.50;1.00;;;;;;6282999;28;20872;-55
2022/07/30 09:01:50;;;;;;;5.40;3.00;;;24.50;1.00;;;;;;6281829;28;20244;-55
2022/07/30 09:04:54;;;;;;;3.13;2.90;;;24.50;1.00;;;;;;6284116;28;20725;-56
2022/07/30 09:07:57;;;;;;;3.40;3.20;;;24.50;1.00;;;;;;6283763;28;20233;-57
2022/07/30 09:11:02;;;;;;;3.27;2.93;;;24.60;1.00;;;;;;6283103;28;20237;-54
2022/07/30 09:14:09;;;;;;;3.00;2.80;;;24.80;1.00;;;;;;6284884;28;20324;-54
2022/07/30 09:17:12;;;;;;;2.77;2.67;;;24.90;1.00;;;;;;6282002;28;20314;-62
2022/07/30 09:20:16;;;;;;;3.17;2.27;;;25.00;1.00;;;;;;6284443;28;20322;-54
2022/07/30 09:23:19;;;;;;;4.20;3.23;;;25.10;1.00;;;;;;6283358;28;20332;-54
2022/07/30 09:26:23;;;;;;;3.33;2.70;;;25.30;1.00;;;;;;6280188;28;20324;-54
2022/07/30 09:29:28;;;;;;;4.40;3.10;;;25.40;1.00;;;;;;6284386;28;20709;-55
2022/07/30 09:32:48;;;;;;;2.50;2.37;;;25.40;1.00;;;;;;6283629;28;20809;-55
2022/07/30 09:35:56;;;;;;;3.00;2.70;;;25.50;1.00;;;;;;6282970;28;20314;-54
2022/07/30 09:38:59;;;;;;;2.67;2.47;;;25.60;1.00;;;;;;6288371;28;20379;-54
2022/07/30 09:42:16;;;;;;;2.50;2.23;;;25.60;1.00;;;;;;6283060;28;20258;-55
2022/07/30 09:45:19;;;;;;;2.93;2.67;;;25.60;1.00;;;;;;6274756;28;20377;-56
2022/07/30 09:48:24;;;;;;;3.00;2.80;;;25.50;1.00;;;;;;6284411;28;20303;-53
2022/07/30 09:51:38;;;;;;;2.30;2.20;;;25.50;1.00;;;;;;6286202;28;20230;-54
2022/07/30 09:54:59;;;;;;;3.47;2.50;;;25.40;1.00;;;;;;6291223;28;20599;-54
2022/07/30 09:58:05;;;;;;;5.53;2.80;;;25.50;1.00;;;;;;6283238;28;20386;-54
2022/07/30 10:01:10;;;;;;;2.20;2.10;;;25.50;1.00;;;;;;6269508;28;20328;-54
2022/07/30 10:04:23;;;;;;;2.30;2.30;;;25.50;1.00;;;;;;6290114;28;20392;-54
2022/07/30 10:07:26;;;;;;;2.73;2.63;;;25.60;1.00;;;;;;6282399;28;20468;-55
2022/07/30 10:10:31;;;;;;;2.60;2.50;;;25.60;1.00;;;;;;6288933;28;20445;-54
2022/07/30 10:13:36;;;;;;;3.67;3.33;;;25.70;1.00;;;;;;6291297;28;20748;-55
2022/07/30 10:16:41;;;;;;;2.40;2.30;;;25.90;1.00;;;;;;6283205;28;20413;-55
2022/07/30 10:19:46;;;;;;;2.93;2.80;;;26.20;1.00;;;;;;6278791;28;20267;-54
2022/07/30 10:22:51;;;;;;;9.33;2.60;;;26.20;1.00;;;;;;6288636;28;20236;-55
2022/07/30 10:25:55;;;;;;;3.10;2.90;;;26.30;1.00;;;;;;6286019;28;20240;-54
2022/07/30 10:29:01;;;;;;;2.20;2.20;;;26.50;1.00;;;;;;6288922;28;20475;-56
2022/07/30 10:32:05;;;;;;;4.83;2.50;;;26.50;1.00;;;;;;6291655;28;20811;-55
2022/07/30 10:35:12;;;;;;;3.57;2.53;;;26.70;1.00;;;;;;6290661;28;20595;-54
2022/07/30 10:38:39;;;;;;;2.80;2.60;;;26.60;1.00;;;;;;6276909;28;20699;-54
2022/07/30 10:41:56;;;;;;;4.30;2.43;;;26.70;1.00;;;;;;6280454;28;20234;-55
2022/07/30 10:45:17;;;;;;;2.67;2.37;;;26.80;1.00;;;;;;6283867;28;20909;-54
2022/07/30 10:48:21;;;;;;;4.53;2.40;;;27.00;1.00;;;;;;6271351;28;20233;-55
2022/07/30 10:51:42;;;;;;;2.67;2.40;;;26.80;1.00;;;;;;6285145;28;20247;-55
2022/07/30 10:54:53;;;;;;;2.60;2.40;;;26.80;1.00;;;;;;6282090;28;20230;-54
2022/07/30 10:58:03;;;;;;;2.17;2.07;;;26.80;1.00;;;;;;6278817;28;20237;-54
2022/07/30 11:01:09;;;;;;;4.73;2.40;;;26.80;1.00;;;;;;6275927;28;20236;-53
2022/07/30 11:04:21;;;;;;;4.00;2.40;;;26.70;1.00;;;;;;6289859;28;20315;-56
2022/07/30 11:07:30;;;;;;;2.30;2.10;;;26.70;1.00;;;;;;6279774;28;20237;-55
2022/07/30 11:10:38;;;;;;;2.60;2.40;;;26.80;1.00;;;;;;6281635;28;20724;-54
2022/07/30 11:13:52;;;;;;;2.60;2.40;;;26.80;1.00;;;;;;6279949;28;20238;-55
2022/07/30 11:17:01;;;;;;;2.07;1.97;;;27.00;1.00;;;;;;6290426;28;20360;-54
2022/07/30 11:20:10;;;;;;;2.53;2.43;;;27.20;1.00;;;;;;6293400;28;20268;-55
2022/07/30 11:23:36;;;;;;;2.40;2.20;;;27.30;1.00;;;;;;6286179;28;20234;-55
2022/07/30 11:26:48;;;;;;;3.60;2.30;;;27.40;1.00;;;;;;6287133;28;20876;-56
2022/07/30 11:29:51;;;;;;;4.27;2.20;;;27.40;1.00;;;;;;6286819;28;20320;-54
2022/07/30 11:33:22;;;;;;;2.33;2.10;;;27.20;1.00;;;;;;6287738;28;20225;-54
2022/07/30 11:36:34;;;;;;;3.63;2.20;;;27.00;1.00;;;;;;6290326;28;20241;-54
2022/07/30 11:40:11;;;;;;;4.37;1.93;;;26.90;1.00;;;;;;6280531;28;20320;-55
2022/07/30 11:43:19;;;;;;;2.40;2.20;;;26.90;1.00;;;;;;6278458;28;20232;-55
2022/07/30 11:46:48;;;;;;;2.60;1.80;;;27.10;1.00;;;;;;6291665;28;20236;-54
2022/07/30 11:49:53;;;;;;;2.10;2.10;;;27.20;1.00;;;;;;6282242;28;20239;-56
2022/07/30 11:52:58;;;;;;;5.10;1.90;;;27.30;1.00;;;;;;6291313;28;20239;-55
2022/07/30 11:56:02;;;;;;;1.90;1.80;;;27.40;1.00;;;;;;6286460;28;20288;-56
2022/07/30 11:59:06;;;;;;;1.90;1.90;;;27.30;1.00;;;;;;6291895;28;20615;-56
2022/07/30 12:02:09;;;;;;;2.60;2.00;;;27.50;1.00;;;;;;6295135;28;20241;-54
2022/07/30 12:05:14;;;;;;;2.30;2.27;;;27.50;1.00;;;;;;6289058;28;20332;-55
2022/07/30 12:08:17;;;;;;;2.43;2.20;;;27.60;1.00;;;;;;6289261;28;20240;-55
2022/07/30 12:11:38;;;;;;;2.13;2.03;;;27.60;1.00;;;;;;6284483;28;20473;-55
2022/07/30 12:14:40;;;;;;;2.23;2.23;;;27.50;1.00;;;;;;6287393;28;20261;-56
2022/07/30 12:17:44;;;;;;;3.80;2.13;;;27.60;1.00;;;;;;6283517;28;20543;-54
2022/07/30 12:20:55;;;;;;;1.90;1.80;;;27.70;1.00;;;;;;6294046;28;20233;-54
2022/07/30 12:24:03;;;;;;;2.37;2.23;;;27.70;1.00;;;;;;6286011;28;20239;-54
2022/07/30 12:27:06;;;;;;;2.20;2.00;;;27.70;1.00;;;;;;6256520;28;20241;-54
2022/07/30 12:30:10;;;;;;;3.23;2.00;;;27.60;1.00;;;;;;6291881;28;20312;-55
2022/07/30 12:33:14;;;;;;;2.30;2.20;;;27.70;1.00;;;;;;6284811;28;20737;-54
2022/07/30 12:36:30;;;;;;;2.40;2.20;;;28.00;1.00;;;;;;6291807;28;20311;-54
2022/07/30 12:39:33;;;;;;;2.47;2.37;;;28.10;1.00;;;;;;6280638;28;20255;-54
2022/07/30 12:42:37;;;;;;;2.77;2.67;;;28.20;1.00;;;;;;6284791;28;20265;-55
2022/07/30 12:45:40;;;;;;;3.60;2.13;;;28.10;1.00;;;;;;6281811;28;20236;-55
2022/07/30 12:48:59;;;;;;;2.43;2.10;;;28.00;1.00;;;;;;6281975;28;20373;-54
2022/07/30 12:52:10;;;;;;;2.93;2.40;;;28.00;1.00;;;;;;6272667;28;20426;-53
2022/07/30 12:55:29;;;;;;;2.63;2.47;;;27.80;1.00;;;;;;6277108;28;20495;-56
2022/07/30 12:58:36;;;;;;;3.07;2.27;;;27.80;1.00;;;;;;6279590;28;20369;-54
2022/07/30 13:01:40;;;;;;;3.57;2.50;;;27.70;1.00;;;;;;6289650;28;20310;-55
2022/07/30 13:04:50;;;;;;;2.30;2.10;;;27.60;1.00;;;;;;6290285;28;20221;-55
2022/07/30 13:08:15;;;;;;;2.27;2.10;;;27.80;1.00;;;;;;6289868;28;20233;-54
2022/07/30 13:11:19;;;;;;;2.30;2.20;;;28.20;1.00;;;;;;6284184;28;20538;-56
2022/07/30 13:14:22;;;;;;;2.60;2.50;;;28.20;1.00;;;;;;6279321;28;20244;-55
2022/07/30 13:17:28;;;;;;;2.30;2.10;;;28.40;1.00;;;;;;6286536;28;20233;-55
2022/07/30 13:20:31;;;;;;;1.97;1.97;;;28.20;1.00;;;;;;6283716;28;20411;-54
2022/07/30 13:23:36;;;;;;;2.40;2.23;;;28.20;1.00;;;;;;6280039;28;21290;-54
2022/07/30 13:26:39;;;;;;;2.20;2.00;;;28.20;1.00;;;;;;6292678;28;20243;-55
2022/07/30 13:29:42;;;;;;;2.30;2.20;;;28.30;1.00;;;;;;6289565;28;20248;-55
2022/07/30 13:32:45;;;;;;;2.33;1.97;;;28.20;1.00;;;;;;6282379;28;20239;-56
2022/07/30 13:35:48;;;;;;;2.50;2.40;;;28.10;1.00;;;;;;6282753;28;20233;-55
2022/07/30 13:38:52;;;;;;;2.50;2.30;;;28.10;1.00;;;;;;6280068;28;20320;-54
2022/07/30 13:41:55;;;;;;;2.30;2.10;;;28.20;1.00;;;;;;6286607;28;20324;-55
2022/07/30 13:44:58;;;;;;;2.40;2.20;;;28.30;1.00;;;;;;6284014;28;20434;-55
2022/07/30 13:48:02;;;;;;;2.10;2.10;;;28.60;1.00;;;;;;6282646;28;20262;-55
2022/07/30 13:51:06;;;;;;;2.77;2.60;;;28.60;1.00;;;;;;6283111;28;20310;-55
2022/07/30 13:54:10;;;;;;;2.40;2.30;;;28.70;1.00;;;;;;6282323;28;20244;-53
2022/07/30 13:57:14;;;;;;;4.50;2.40;;;28.70;1.00;;;;;;6289921;28;20706;-56
2022/07/30 14:00:17;;;;;;;3.50;2.67;;;28.60;1.00;;;;;;6277851;28;20263;-56
2022/07/30 14:03:20;;;;;;;2.30;2.20;;;28.80;1.00;;;;;;6285211;28;20915;-55
2022/07/30 14:06:23;;;;;;;2.80;2.60;;;28.80;1.00;;;;;;6284473;28;20236;-54
2022/07/30 14:09:27;;;;;;;2.83;2.63;;;28.70;1.00;;;;;;6278437;28;20255;-55
2022/07/30 14:12:30;;;;;;;5.33;2.03;;;28.50;1.00;;;;;;6288304;28;20254;-55
2022/07/30 14:15:33;;;;;;;5.13;2.27;;;28.20;1.00;;;;;;6270160;28;20788;-55
2022/07/30 14:18:36;;;;;;;3.53;2.60;;;28.20;1.00;;;;;;6282286;28;20233;-55
2022/07/30 14:21:39;;;;;;;2.40;2.20;;;28.30;1.00;;;;;;6283963;28;20721;-55
2022/07/30 14:24:43;;;;;;;2.60;2.33;;;28.40;1.00;;;;;;6277501;28;20267;-54
2022/07/30 14:27:47;;;;;;;2.20;2.10;;;28.30;1.00;;;;;;6282864;28;20713;-54
2022/07/30 14:30:50;;;;;;;2.20;2.10;;;28.20;1.00;;;;;;6282180;28;20480;-53
2022/07/30 14:33:52;;;;;;;3.33;2.60;;;28.30;1.00;;;;;;6290867;28;20379;-54
2022/07/30 14:36:55;;;;;;;2.60;2.13;;;28.40;1.00;;;;;;6284252;28;20384;-55
2022/07/30 14:40:00;;;;;;;2.53;2.43;;;28.60;1.00;;;;;;6277386;28;20344;-55
2022/07/30 14:43:03;;;;;;;2.47;2.37;;;28.60;1.00;;;;;;6281437;28;20605;-54
2022/07/30 14:46:08;;;;;;;2.37;2.27;;;28.70;1.00;;;;;;6283613;28;20225;-55
2022/07/30 14:49:11;;;;;;;2.10;2.10;;;28.80;1.00;;;;;;6280977;28;20322;-55
2022/07/30 14:52:17;;;;;;;2.40;2.40;;;28.70;1.00;;;;;;6296816;28;20237;-54
2022/07/30 14:55:21;;;;;;;3.43;2.10;;;28.50;1.00;;;;;;6293250;28;20236;-54
2022/07/30 14:58:24;;;;;;;2.83;2.10;;;28.30;1.00;;;;;;6289065;28;20259;-56
2022/07/30 15:01:27;;;;;;;3.07;1.90;;;28.30;1.00;;;;;;6289661;28;20292;-54
2022/07/30 15:04:30;;;;;;;2.80;2.63;;;28.40;1.00;;;;;;6293636;28;20352;-56
2022/07/30 15:07:33;;;;;;;3.40;2.70;;;28.50;1.00;;;;;;6290013;28;20250;-55
2022/07/30 15:10:39;;;;;;;2.70;2.57;;;28.30;1.00;;;;;;6289845;28;20244;-54
2022/07/30 15:13:45;;;;;;;3.30;3.00;;;28.00;1.00;;;;;;6285983;28;20260;-54
2022/07/30 15:16:52;;;;;;;2.83;2.67;;;27.80;1.00;;;;;;6294415;28;20631;-54
2022/07/30 15:19:55;;;;;;;3.30;2.50;;;27.80;1.00;;;;;;6291685;28;20331;-55
2022/07/30 15:22:58;;;;;;;2.83;2.63;;;27.80;1.00;;;;;;6283649;28;20783;-54
2022/07/30 15:26:02;;;;;;;4.10;2.40;;;27.70;1.00;;;;;;6294490;28;20620;-55
2022/07/30 15:29:05;;;;;;;2.70;2.60;;;27.60;1.00;;;;;;6281510;28;20510;-55
2022/07/30 15:32:16;;;;;;;2.80;2.70;;;27.60;1.00;;;;;;6293057;28;20221;-54
2022/07/30 15:35:19;;;;;;;2.60;2.40;;;27.50;1.00;;;;;;6298005;28;20324;-55
2022/07/30 15:38:22;;;;;;;2.50;2.43;;;27.50;1.00;;;;;;6283632;28;20261;-55
2022/07/30 15:41:26;;;;;;;4.30;2.47;;;27.50;1.00;;;;;;6294288;28;20243;-54
2022/07/30 15:44:29;;;;;;;2.63;2.43;;;27.50;1.00;;;;;;6284759;28;20245;-54
2022/07/30 15:47:32;;;;;;;2.33;2.23;;;27.40;1.00;;;;;;6284369;28;20320;-55
2022/07/30 15:50:35;;;;;;;2.30;2.30;;;27.40;1.00;;;;;;6276786;28;20370;-55
2022/07/30 15:53:38;;;;;;;2.27;2.17;;;27.50;1.00;;;;;;6295204;28;20229;-54
2022/07/30 15:56:44;;;;;;;2.23;2.23;;;27.50;1.00;;;;;;6289581;28;20233;-60
2022/07/30 15:59:47;;;;;;;2.33;2.23;;;27.70;1.00;;;;;;6288045;28;20308;-55
2022/07/30 16:02:50;;;;;;;3.10;2.33;;;27.80;1.00;;;;;;6277772;28;20387;-55
2022/07/30 16:05:53;;;;;;;3.00;2.90;;;27.80;1.00;;;;;;6276768;28;20226;-54
2022/07/30 16:08:56;;;;;;;2.97;2.17;;;27.60;1.00;;;;;;6280168;28;20225;-54
2022/07/30 16:12:00;;;;;;;2.17;2.07;;;27.40;1.00;;;;;;6278538;28;20256;-54
2022/07/30 16:15:04;;;;;;;3.13;2.90;;;27.30;1.00;;;;;;6278875;28;20258;-55
2022/07/30 16:18:07;;;;;;;2.40;2.30;;;27.20;1.00;;;;;;6284065;28;20324;-54
2022/07/30 16:21:11;;;;;;;2.30;2.20;;;27.20;1.00;;;;;;6286924;28;20437;-54